Time;durP1;ratioP1;P1;durP2;ratioP2;P2;SDS_P1;SDS_P2;PMS_P1;PMS_P2;Temp;Humidity;BMP_temperature;BMP_pressure;BME280_temperature;BME280_humidity;BME280_pressure;Samples;Min_cycle;Max_cycle;Signal;HPM_P1;HPM_P2
2022/06/30 00:01:59;;;;;;;6.13;4.78;;;22.30;99.90;;;;;;5052962;28;20017;-74
2022/06/30 00:04:25;;;;;;;7.07;5.20;;;22.30;99.90;;;;;;5052504;28;20649;-74
2022/06/30 00:06:52;;;;;;;7.60;4.57;;;22.30;99.90;;;;;;5051472;28;20025;-75
2022/06/30 00:09:19;;;;;;;7.03;4.38;;;22.30;99.90;;;;;;5060664;28;20541;-75
2022/06/30 00:11:44;;;;;;;6.03;4.85;;;22.30;99.90;;;;;;5067614;28;20021;-75
2022/06/30 00:14:10;;;;;;;5.57;5.07;;;22.40;99.90;;;;;;5043052;28;20159;-74
2022/06/30 00:16:36;;;;;;;9.15;5.80;;;22.40;99.90;;;;;;5054204;28;20033;-75
2022/06/30 00:19:01;;;;;;;8.27;5.50;;;22.10;99.90;;;;;;5054449;28;20021;-73
2022/06/30 00:21:27;;;;;;;7.57;6.15;;;22.20;99.90;;;;;;5053021;28;20470;-74
2022/06/30 00:23:53;;;;;;;8.20;5.57;;;22.20;99.90;;;;;;5052703;28;20422;-75
2022/06/30 00:26:19;;;;;;;6.30;5.70;;;22.20;99.90;;;;;;5049378;28;20110;-75
2022/06/30 00:28:46;;;;;;;7.47;5.65;;;22.20;99.90;;;;;;5051593;28;20112;-74
2022/06/30 00:31:12;;;;;;;5.72;4.88;;;22.20;99.90;;;;;;5051178;28;20025;-74
2022/06/30 00:33:38;;;;;;;9.27;4.90;;;22.20;99.90;;;;;;5032863;28;20033;-74
2022/06/30 00:36:03;;;;;;;8.85;5.75;;;22.20;99.90;;;;;;5048952;28;20397;-75
2022/06/30 00:38:29;;;;;;;6.90;5.97;;;22.20;99.90;;;;;;5052458;28;20029;-75
2022/06/30 00:40:55;;;;;;;5.75;5.18;;;22.20;99.90;;;;;;5051860;28;20139;-74
2022/06/30 00:43:21;;;;;;;9.45;5.10;;;22.20;99.90;;;;;;5053057;28;20029;-74
2022/06/30 00:45:48;;;;;;;10.80;6.32;;;22.10;99.90;;;;;;5048912;28;20033;-75
2022/06/30 00:48:16;;;;;;;8.07;5.93;;;22.20;99.90;;;;;;5052320;28;20484;-75
2022/06/30 00:50:42;;;;;;;11.10;6.32;;;22.20;99.90;;;;;;5052515;28;20642;-75
2022/06/30 00:53:09;;;;;;;7.35;6.60;;;22.10;99.90;;;;;;5051421;28;20029;-74
2022/06/30 00:55:35;;;;;;;6.65;6.03;;;22.00;99.90;;;;;;5049775;28;20029;-75
2022/06/30 00:58:03;;;;;;;9.98;6.00;;;22.00;99.90;;;;;;5034131;28;20405;-75
2022/06/30 01:00:32;;;;;;;6.95;6.22;;;21.90;99.90;;;;;;5052683;28;20129;-75
2022/06/30 01:02:59;;;;;;;7.85;6.13;;;21.90;99.90;;;;;;5051273;28;20052;-75
2022/06/30 01:05:26;;;;;;;10.10;6.18;;;21.80;99.90;;;;;;5053032;28;20079;-74
2022/06/30 01:07:53;;;;;;;9.80;6.63;;;21.90;99.90;;;;;;5055422;28;20557;-75
2022/06/30 01:13:03;;;;;;;9.27;6.03;;;21.80;99.90;;;;;;5049434;28;20079;-74
2022/06/30 01:15:29;;;;;;;8.05;5.97;;;21.80;99.90;;;;;;5036334;28;20033;-74
2022/06/30 01:17:54;;;;;;;7.35;5.32;;;21.70;99.90;;;;;;5038930;28;20021;-74
2022/06/30 01:20:33;;;;;;;7.50;5.78;;;21.70;99.90;;;;;;5075996;28;20024;-75
2022/06/30 01:23:02;;;;;;;7.13;6.38;;;21.60;99.90;;;;;;5074554;28;20068;-75
2022/06/30 01:25:28;;;;;;;9.80;5.72;;;21.60;99.90;;;;;;5055315;28;20029;-74
2022/06/30 01:27:55;;;;;;;8.85;5.90;;;21.60;99.90;;;;;;5056042;28;20044;-73
2022/06/30 01:30:22;;;;;;;8.13;5.95;;;21.50;99.90;;;;;;5041807;28;20037;-75
2022/06/30 01:32:47;;;;;;;11.10;5.93;;;21.60;99.90;;;;;;5036257;28;20431;-75
2022/06/30 01:35:13;;;;;;;8.90;6.95;;;21.60;99.90;;;;;;5035723;28;20025;-75
2022/06/30 01:37:55;;;;;;;9.55;6.45;;;21.60;99.90;;;;;;5035456;28;20028;-75
2022/06/30 01:40:23;;;;;;;8.60;6.47;;;21.50;99.90;;;;;;5061191;28;20559;-75
2022/06/30 01:42:50;;;;;;;8.00;7.30;;;21.50;99.90;;;;;;5066062;28;20057;-75
2022/06/30 01:45:17;;;;;;;10.02;8.55;;;21.50;99.90;;;;;;5055556;28;20049;-75
2022/06/30 01:47:43;;;;;;;9.80;8.90;;;21.50;99.90;;;;;;5054875;28;20045;-75
2022/06/30 01:50:14;;;;;;;9.50;8.13;;;21.40;99.90;;;;;;5054767;28;20033;-74
2022/06/30 01:52:40;;;;;;;8.65;7.82;;;21.40;99.90;;;;;;5052275;28;20056;-75
2022/06/30 01:55:09;;;;;;;10.75;8.68;;;21.40;99.90;;;;;;5055462;28;20052;-74
2022/06/30 01:57:36;;;;;;;11.55;8.77;;;21.30;99.90;;;;;;5054633;28;20115;-75
2022/06/30 02:00:04;;;;;;;10.63;8.10;;;21.30;99.90;;;;;;5058986;28;20563;-75
2022/06/30 02:02:30;;;;;;;11.38;8.48;;;21.30;99.90;;;;;;5054237;28;20040;-75
2022/06/30 02:04:55;;;;;;;11.65;8.90;;;21.20;99.90;;;;;;5055741;28;20385;-75
2022/06/30 02:07:23;;;;;;;10.77;9.43;;;21.20;99.90;;;;;;5054833;28;20025;-75
2022/06/30 02:09:51;;;;;;;10.90;9.45;;;21.20;99.90;;;;;;5055012;28;20037;-75
2022/06/30 02:15:06;;;;;;;9.57;7.70;;;21.10;99.90;;;;;;5035212;28;20516;-74
2022/06/30 02:17:32;;;;;;;9.00;7.05;;;21.10;99.90;;;;;;5060988;28;20017;-74
2022/06/30 02:19:58;;;;;;;7.55;6.82;;;21.10;99.90;;;;;;5055100;28;20103;-74
2022/06/30 02:22:25;;;;;;;8.13;5.90;;;21.10;99.90;;;;;;5054522;28;20033;-74
2022/06/30 02:24:50;;;;;;;8.38;6.93;;;21.10;99.90;;;;;;5053681;28;20040;-73
2022/06/30 02:27:16;;;;;;;8.80;7.90;;;21.00;99.90;;;;;;5034875;28;20389;-73
2022/06/30 02:29:42;;;;;;;9.50;8.60;;;20.90;99.90;;;;;;5048031;28;20375;-73
2022/06/30 02:32:08;;;;;;;10.32;9.38;;;20.90;99.90;;;;;;5067781;28;20016;-73
2022/06/30 02:34:34;;;;;;;8.80;7.07;;;20.90;99.90;;;;;;5074319;28;20136;-73
2022/06/30 02:36:59;;;;;;;11.90;7.78;;;20.80;99.90;;;;;;5075045;28;20481;-73
2022/06/30 02:39:25;;;;;;;8.60;6.85;;;20.70;99.90;;;;;;5060946;28;20074;-73
2022/06/30 02:41:51;;;;;;;15.82;7.30;;;20.70;99.90;;;;;;5054805;28;20032;-73
2022/06/30 02:44:17;;;;;;;9.55;8.05;;;20.70;99.90;;;;;;5052823;28;20025;-74
2022/06/30 02:46:42;;;;;;;7.95;7.18;;;20.70;99.90;;;;;;5045355;28;20508;-73
2022/06/30 02:49:08;;;;;;;8.43;7.55;;;20.70;99.90;;;;;;5034666;28;20026;-73
2022/06/30 02:51:33;;;;;;;11.32;7.55;;;20.70;99.90;;;;;;5059020;28;20081;-73
2022/06/30 02:53:59;;;;;;;7.72;6.90;;;20.70;99.90;;;;;;5063941;28;20441;-73
2022/06/30 02:56:25;;;;;;;7.75;7.00;;;20.70;99.90;;;;;;5054494;28;20496;-73
2022/06/30 02:58:51;;;;;;;10.93;6.40;;;20.70;99.90;;;;;;5052309;28;20021;-73
2022/06/30 03:01:17;;;;;;;7.40;6.68;;;20.60;99.90;;;;;;5054255;28;20017;-73
2022/06/30 03:03:42;;;;;;;8.32;6.95;;;20.60;99.90;;;;;;5054150;28;20078;-73
2022/06/30 03:06:08;;;;;;;7.60;6.90;;;20.60;99.90;;;;;;5054504;28;20040;-73
2022/06/30 03:08:34;;;;;;;8.32;7.13;;;20.70;99.90;;;;;;5053924;28;20477;-73
2022/06/30 03:10:59;;;;;;;11.55;7.70;;;20.70;99.90;;;;;;5054322;28;20090;-73
2022/06/30 03:13:25;;;;;;;11.07;6.88;;;20.60;99.90;;;;;;5059348;28;20028;-74
2022/06/30 03:15:51;;;;;;;8.55;6.53;;;20.60;99.90;;;;;;5053560;28;20482;-73
2022/06/30 03:18:17;;;;;;;8.98;6.78;;;20.60;99.90;;;;;;5053067;28;20025;-73
2022/06/30 03:20:43;;;;;;;7.25;6.55;;;20.50;99.90;;;;;;5042058;28;20608;-74
2022/06/30 03:23:09;;;;;;;8.60;6.65;;;20.50;99.90;;;;;;5033995;28;20049;-73
2022/06/30 03:25:34;;;;;;;13.40;6.50;;;20.50;99.90;;;;;;5049387;28;20090;-72
2022/06/30 03:28:02;;;;;;;8.68;6.03;;;20.40;99.90;;;;;;5053211;28;20377;-73
2022/06/30 03:30:28;;;;;;;13.50;6.93;;;20.50;99.90;;;;;;5040094;28;20124;-73
2022/06/30 03:32:53;;;;;;;8.70;7.20;;;20.40;99.90;;;;;;5033397;28;20940;-73
2022/06/30 03:35:19;;;;;;;7.78;7.00;;;20.10;99.90;;;;;;5032773;28;20474;-73
2022/06/30 03:37:46;;;;;;;9.73;6.60;;;20.10;99.90;;;;;;5061283;28;20461;-73
2022/06/30 03:40:12;;;;;;;8.20;6.88;;;20.10;99.90;;;;;;5052815;28;20474;-73
2022/06/30 03:42:38;;;;;;;8.05;7.22;;;20.10;99.90;;;;;;5045233;28;20135;-73
2022/06/30 03:45:05;;;;;;;7.97;6.65;;;20.10;99.90;;;;;;5045673;28;20116;-73
2022/06/30 03:47:31;;;;;;;7.05;6.45;;;20.10;99.90;;;;;;5033338;28;20017;-73
2022/06/30 03:49:56;;;;;;;8.75;6.90;;;20.20;99.90;;;;;;5032849;28;20041;-73
2022/06/30 03:52:22;;;;;;;9.07;6.55;;;20.10;99.90;;;;;;5032813;28;20029;-73
2022/06/30 03:54:48;;;;;;;7.85;6.95;;;20.10;99.90;;;;;;5032801;28;20057;-73
2022/06/30 03:57:14;;;;;;;9.32;6.70;;;20.00;99.90;;;;;;5033770;28;20030;-73
2022/06/30 03:59:39;;;;;;;6.50;5.75;;;20.00;99.90;;;;;;5039810;28;20465;-73
2022/06/30 04:02:06;;;;;;;7.63;6.72;;;20.00;99.90;;;;;;5066233;28;20032;-72
2022/06/30 04:04:32;;;;;;;7.07;6.45;;;20.00;99.90;;;;;;5072296;28;20056;-73
2022/06/30 04:06:58;;;;;;;7.75;6.40;;;20.00;99.90;;;;;;5071924;28;20427;-73
2022/06/30 04:09:24;;;;;;;10.63;6.25;;;20.00;99.90;;;;;;5072960;28;20029;-72
2022/06/30 04:11:49;;;;;;;6.85;6.15;;;20.00;99.90;;;;;;5071650;28;20055;-72
2022/06/30 04:14:15;;;;;;;10.32;7.25;;;20.00;99.90;;;;;;5035903;28;20026;-73
2022/06/30 04:16:41;;;;;;;8.20;7.40;;;19.90;99.90;;;;;;5032694;28;20444;-73
2022/06/30 04:19:06;;;;;;;7.75;7.03;;;19.90;99.90;;;;;;5033189;28;20095;-72
2022/06/30 04:21:32;;;;;;;10.32;7.63;;;20.00;99.90;;;;;;5051069;28;20396;-73
2022/06/30 04:23:58;;;;;;;8.05;7.35;;;19.90;99.90;;;;;;5073155;28;20021;-73
2022/06/30 04:26:23;;;;;;;10.18;7.18;;;20.00;99.90;;;;;;5073168;28;20273;-72
2022/06/30 04:28:49;;;;;;;8.82;7.90;;;19.90;99.90;;;;;;5065380;28;20146;-73
2022/06/30 04:33:59;;;;;;;11.15;9.13;;;19.80;99.90;;;;;;5043164;28;20028;-73
2022/06/30 04:36:24;;;;;;;12.68;9.85;;;19.80;99.90;;;;;;5053052;28;20029;-72
2022/06/30 04:38:50;;;;;;;12.80;10.63;;;19.80;99.90;;;;;;5051734;28;20466;-72
2022/06/30 04:41:25;;;;;;;10.63;9.55;;;19.80;99.90;;;;;;5052807;28;20067;-73
2022/06/30 04:43:52;;;;;;;14.00;11.43;;;19.80;99.90;;;;;;5051190;28;20116;-75
2022/06/30 04:46:17;;;;;;;18.30;11.88;;;19.90;99.90;;;;;;5052211;28;20033;-74
2022/06/30 04:48:43;;;;;;;15.68;12.77;;;19.90;99.90;;;;;;5049974;28;20456;-74
2022/06/30 04:51:09;;;;;;;17.85;14.02;;;19.90;99.90;;;;;;5052315;28;20057;-74
2022/06/30 04:53:34;;;;;;;18.35;15.25;;;19.90;99.90;;;;;;5052505;28;20025;-74
2022/06/30 04:56:00;;;;;;;21.40;14.82;;;19.90;99.90;;;;;;5052399;28;20029;-74
2022/06/30 04:58:26;;;;;;;20.25;15.57;;;19.90;99.90;;;;;;5051971;28;20048;-71
2022/06/30 05:00:51;;;;;;;20.17;16.23;;;20.00;99.90;;;;;;5051019;28;20071;-75
2022/06/30 05:03:17;;;;;;;20.80;16.65;;;20.00;99.90;;;;;;5052497;28;20098;-74
2022/06/30 05:05:43;;;;;;;22.40;15.85;;;19.90;99.90;;;;;;5052359;28;20025;-75
2022/06/30 05:08:09;;;;;;;20.65;15.63;;;19.90;99.90;;;;;;5050784;28;20021;-75
2022/06/30 05:10:34;;;;;;;20.23;15.20;;;20.00;99.90;;;;;;5032412;28;20090;-74
2022/06/30 05:13:00;;;;;;;22.05;15.88;;;20.00;99.90;;;;;;5046074;28;20473;-72
2022/06/30 05:15:26;;;;;;;23.77;15.38;;;20.10;99.90;;;;;;5052019;28;20418;-74
2022/06/30 05:17:51;;;;;;;21.27;15.38;;;20.00;99.90;;;;;;5052369;28;20021;-74
2022/06/30 05:20:17;;;;;;;18.65;16.15;;;20.00;99.90;;;;;;5052387;28;20025;-75
2022/06/30 05:22:43;;;;;;;16.90;14.57;;;20.10;99.90;;;;;;5051360;28;20104;-74
2022/06/30 05:27:53;;;;;;;23.75;16.80;;;20.00;99.90;;;;;;5042959;28;20523;-75
2022/06/30 05:30:19;;;;;;;22.38;15.57;;;20.10;99.90;;;;;;5052022;28;20041;-75
2022/06/30 05:32:45;;;;;;;23.85;14.38;;;20.00;99.90;;;;;;5052468;28;20458;-75
2022/06/30 05:35:11;;;;;;;22.10;15.13;;;20.00;99.90;;;;;;5052384;28;20096;-74
2022/06/30 05:37:38;;;;;;;20.17;15.40;;;20.10;99.90;;;;;;5051993;28;20029;-74
2022/06/30 05:40:05;;;;;;;20.17;14.13;;;20.00;99.90;;;;;;5052268;28;20032;-73
2022/06/30 05:42:30;;;;;;;15.98;12.75;;;19.90;99.90;;;;;;5051563;28;20031;-73
2022/06/30 05:44:56;;;;;;;15.70;11.60;;;19.90;99.90;;;;;;5047291;28;20045;-74
2022/06/30 05:47:22;;;;;;;15.30;11.68;;;20.00;99.90;;;;;;5062034;28;20358;-75
2022/06/30 05:49:47;;;;;;;14.35;10.55;;;20.00;99.90;;;;;;5072041;28;20043;-74
2022/06/30 05:52:13;;;;;;;17.70;11.75;;;20.10;99.90;;;;;;5040233;28;20493;-74
2022/06/30 05:54:39;;;;;;;14.77;10.40;;;20.10;99.90;;;;;;5035906;28;20474;-74
2022/06/30 05:57:05;;;;;;;12.70;9.82;;;20.20;99.90;;;;;;5036058;28;20033;-74
2022/06/30 05:59:32;;;;;;;15.50;9.57;;;20.20;99.90;;;;;;5036782;28;20040;-75
2022/06/30 06:01:59;;;;;;;12.25;8.55;;;20.30;99.90;;;;;;5039273;28;20067;-74
2022/06/30 06:04:25;;;;;;;12.88;10.07;;;20.20;99.90;;;;;;5039883;28;20032;-76
2022/06/30 06:06:51;;;;;;;13.65;9.15;;;20.20;99.90;;;;;;5055445;28;20052;-75
2022/06/30 06:09:16;;;;;;;13.10;8.45;;;20.20;99.90;;;;;;5055272;28;20474;-75
2022/06/30 06:11:42;;;;;;;12.27;8.90;;;20.10;99.90;;;;;;5055252;28;20151;-76
2022/06/30 06:14:08;;;;;;;12.00;8.75;;;20.10;99.90;;;;;;5036676;28;20025;-75
2022/06/30 06:16:34;;;;;;;11.52;8.55;;;20.10;99.90;;;;;;5035425;28;20506;-75
2022/06/30 06:18:59;;;;;;;12.93;9.32;;;20.20;99.90;;;;;;5034774;28;20121;-75
2022/06/30 06:21:26;;;;;;;14.25;9.65;;;20.20;99.90;;;;;;5034937;28;20022;-75
2022/06/30 06:23:53;;;;;;;14.32;9.40;;;20.30;99.90;;;;;;5035086;28;20394;-75
2022/06/30 06:26:19;;;;;;;12.65;10.10;;;20.20;99.90;;;;;;5035252;28;20032;-75
2022/06/30 06:31:31;;;;;;;13.57;10.05;;;20.10;99.90;;;;;;5055168;28;20547;-74
2022/06/30 06:33:57;;;;;;;13.15;9.52;;;20.20;99.90;;;;;;5054936;28;20023;-75
2022/06/30 06:36:23;;;;;;;14.25;9.77;;;20.20;99.90;;;;;;5053864;28;20445;-74
2022/06/30 06:38:49;;;;;;;14.70;10.43;;;20.20;99.90;;;;;;5054644;28;20489;-75
2022/06/30 06:41:15;;;;;;;13.82;10.77;;;20.20;99.90;;;;;;5054776;28;20017;-75
2022/06/30 06:43:41;;;;;;;19.35;10.35;;;20.30;99.90;;;;;;5054941;28;20060;-75
2022/06/30 06:46:07;;;;;;;15.40;10.80;;;20.40;99.90;;;;;;5043650;28;20478;-75
2022/06/30 06:48:32;;;;;;;14.07;9.13;;;20.50;99.90;;;;;;5053200;28;20079;-75
2022/06/30 06:50:58;;;;;;;15.07;10.57;;;20.60;99.90;;;;;;5053741;28;20025;-74
2022/06/30 06:53:24;;;;;;;15.40;9.38;;;20.60;99.90;;;;;;5061462;28;20108;-74
2022/06/30 06:55:50;;;;;;;15.15;9.80;;;20.80;99.90;;;;;;5054002;28;20025;-74
2022/06/30 06:58:15;;;;;;;17.17;9.45;;;21.00;99.90;;;;;;5042172;28;20030;-74
2022/06/30 07:00:42;;;;;;;10.18;8.18;;;21.20;99.90;;;;;;5034677;28;20024;-74
2022/06/30 07:03:07;;;;;;;15.52;10.85;;;21.20;99.90;;;;;;5033132;28;20056;-75
2022/06/30 07:05:33;;;;;;;15.20;9.65;;;21.30;99.90;;;;;;5034644;28;20117;-75
2022/06/30 07:08:00;;;;;;;14.65;9.88;;;21.40;99.90;;;;;;5045734;28;20355;-73
2022/06/30 07:10:27;;;;;;;16.10;9.65;;;21.60;99.90;;;;;;5053088;28;20041;-75
2022/06/30 07:12:53;;;;;;;14.73;8.95;;;21.70;99.90;;;;;;5053356;28;20024;-74
2022/06/30 07:15:20;;;;;;;17.77;10.20;;;21.90;99.90;;;;;;5071775;28;20025;-73
2022/06/30 07:17:45;;;;;;;16.05;10.20;;;21.90;99.90;;;;;;5073639;28;20031;-74
2022/06/30 07:20:11;;;;;;;14.55;9.57;;;22.00;99.90;;;;;;5074251;28;20021;-74
2022/06/30 07:22:37;;;;;;;14.55;9.85;;;22.10;99.90;;;;;;5069691;28;20048;-74
2022/06/30 07:25:05;;;;;;;12.95;9.00;;;22.20;99.90;;;;;;5073179;28;20021;-73
2022/06/30 07:27:31;;;;;;;12.02;7.88;;;22.40;99.90;;;;;;5068058;28;20025;-74
2022/06/30 07:29:56;;;;;;;15.30;7.63;;;22.60;99.90;;;;;;5053755;28;20029;-74
2022/06/30 07:32:22;;;;;;;12.65;6.18;;;22.60;99.90;;;;;;5064638;28;20047;-75
2022/06/30 07:34:48;;;;;;;10.10;6.68;;;22.70;99.90;;;;;;5053711;28;20113;-74
2022/06/30 07:37:13;;;;;;;9.90;6.63;;;22.80;99.90;;;;;;5053887;28;20100;-74
2022/06/30 07:39:39;;;;;;;13.90;6.80;;;22.80;99.90;;;;;;5051994;28;20160;-73
2022/06/30 07:42:05;;;;;;;12.25;6.65;;;22.90;99.90;;;;;;5050015;28;20396;-74
2022/06/30 07:44:31;;;;;;;15.30;7.55;;;22.90;99.90;;;;;;5046542;28;20032;-73
2022/06/30 07:46:56;;;;;;;15.32;7.03;;;23.00;99.90;;;;;;5052082;28;20091;-74
2022/06/30 07:49:22;;;;;;;14.00;6.55;;;23.00;99.90;;;;;;5051882;28;20037;-77
2022/06/30 07:51:48;;;;;;;9.88;6.30;;;23.20;99.90;;;;;;5053347;28;20032;-76
2022/06/30 07:54:14;;;;;;;11.20;6.85;;;23.30;99.90;;;;;;5052965;28;20485;-75
2022/06/30 07:56:40;;;;;;;10.93;6.80;;;23.40;99.90;;;;;;5053242;28;20036;-75
2022/06/30 07:59:06;;;;;;;9.43;6.07;;;23.50;99.90;;;;;;5037775;28;20022;-75
2022/06/30 08:01:31;;;;;;;8.52;6.00;;;23.60;99.90;;;;;;5033712;28;20037;-75
2022/06/30 08:03:57;;;;;;;13.02;6.40;;;23.70;99.90;;;;;;5033371;28;20160;-75
2022/06/30 08:06:24;;;;;;;12.90;6.53;;;23.80;99.90;;;;;;5033559;28;20053;-75
2022/06/30 08:08:52;;;;;;;12.30;6.35;;;23.90;99.90;;;;;;5032886;28;20022;-75
2022/06/30 08:11:18;;;;;;;12.52;7.32;;;24.00;99.90;;;;;;5034682;28;20112;-75
2022/06/30 08:13:44;;;;;;;8.18;6.32;;;24.00;99.90;;;;;;5056763;28;20696;-75
2022/06/30 08:16:11;;;;;;;9.40;5.70;;;24.00;99.90;;;;;;5073260;28;20111;-74
2022/06/30 08:18:37;;;;;;;12.05;6.35;;;24.10;99.90;;;;;;5061570;28;20074;-76
2022/06/30 08:21:03;;;;;;;12.63;5.63;;;24.10;99.90;;;;;;5053156;28;20033;-77
2022/06/30 08:23:29;;;;;;;9.88;5.70;;;24.20;99.90;;;;;;5052594;28;20104;-74
2022/06/30 08:25:55;;;;;;;11.57;6.28;;;24.30;99.90;;;;;;5052615;28;20108;-75
2022/06/30 08:28:21;;;;;;;12.18;5.82;;;24.30;99.90;;;;;;5043459;28;20106;-75
2022/06/30 08:30:48;;;;;;;7.85;5.63;;;24.50;99.90;;;;;;5032449;28;20458;-75
2022/06/30 08:33:14;;;;;;;10.52;6.60;;;24.70;99.90;;;;;;5046766;28;20416;-75
2022/06/30 08:35:40;;;;;;;11.32;5.90;;;24.70;99.90;;;;;;5052473;28;20087;-75
2022/06/30 08:38:06;;;;;;;8.98;5.75;;;24.90;99.90;;;;;;5037756;28;20030;-75
2022/06/30 08:43:19;;;;;;;9.45;6.20;;;25.10;99.90;;;;;;5053542;28;20060;-75
2022/06/30 08:45:46;;;;;;;8.77;5.72;;;25.10;99.90;;;;;;5052535;28;20032;-75
2022/06/30 08:48:12;;;;;;;9.60;5.97;;;25.30;99.90;;;;;;5052914;28;20143;-75
2022/06/30 08:50:42;;;;;;;10.02;5.57;;;25.40;99.90;;;;;;5054000;28;20033;-75
2022/06/30 08:53:10;;;;;;;8.48;5.43;;;25.50;99.90;;;;;;5059941;28;20124;-75
2022/06/30 08:55:36;;;;;;;11.63;6.10;;;25.60;99.90;;;;;;5036423;28;20022;-76
2022/06/30 08:58:07;;;;;;;10.20;6.00;;;25.70;99.90;;;;;;5040125;28;20017;-75
2022/06/30 09:00:35;;;;;;;7.88;5.45;;;25.80;99.90;;;;;;5052629;28;20021;-75
2022/06/30 09:03:04;;;;;;;10.68;5.57;;;25.90;99.90;;;;;;5053022;28;20021;-75
2022/06/30 09:05:31;;;;;;;6.97;5.85;;;25.90;99.90;;;;;;5054406;28;20057;-75
2022/06/30 09:07:57;;;;;;;9.77;5.38;;;26.00;99.90;;;;;;5036097;28;20076;-75
2022/06/30 09:10:25;;;;;;;11.10;5.75;;;25.90;99.90;;;;;;5044419;28;20037;-75
2022/06/30 09:13:02;;;;;;;8.05;5.00;;;26.10;99.90;;;;;;5052533;28;20025;-75
2022/06/30 09:15:32;;;;;;;9.50;5.18;;;26.20;99.90;;;;;;5051806;28;20560;-75
2022/06/30 09:18:00;;;;;;;9.25;5.20;;;26.30;99.90;;;;;;5051625;28;20394;-76
2022/06/30 09:20:37;;;;;;;11.75;6.13;;;26.50;99.90;;;;;;5051725;28;20025;-75
2022/06/30 09:23:25;;;;;;;7.63;5.47;;;26.60;99.90;;;;;;5052443;28;20067;-75
2022/06/30 09:25:54;;;;;;;10.70;6.03;;;26.70;99.90;;;;;;5052239;28;20029;-75
2022/06/30 09:28:43;;;;;;;12.98;5.82;;;26.60;99.90;;;;;;5056175;28;20029;-75
2022/06/30 09:31:10;;;;;;;9.93;4.97;;;26.50;99.90;;;;;;5056345;28;20029;-75
2022/06/30 09:33:39;;;;;;;13.05;5.80;;;26.70;99.90;;;;;;5055159;28;20053;-75
2022/06/30 09:36:25;;;;;;;11.30;5.25;;;26.90;99.90;;;;;;5054539;28;20031;-75
2022/06/30 09:39:08;;;;;;;10.07;4.90;;;27.00;99.90;;;;;;5055201;28;20052;-74
2022/06/30 09:41:36;;;;;;;10.18;4.90;;;26.90;99.90;;;;;;5039340;28;20036;-75
2022/06/30 09:44:23;;;;;;;8.45;4.95;;;27.00;99.90;;;;;;5035936;28;20022;-72
2022/06/30 09:47:04;;;;;;;10.98;4.72;;;27.10;99.90;;;;;;5055459;28;20049;-74
2022/06/30 09:49:35;;;;;;;8.65;5.53;;;27.20;99.90;;;;;;5069410;28;20034;-75
2022/06/30 09:52:04;;;;;;;7.40;5.13;;;27.20;99.90;;;;;;5075712;28;20099;-77
2022/06/30 09:54:35;;;;;;;10.70;4.80;;;27.10;99.90;;;;;;5076046;28;20384;-74
2022/06/30 09:57:02;;;;;;;11.20;5.38;;;27.20;99.90;;;;;;5072147;28;20052;-75
2022/06/30 09:59:28;;;;;;;7.40;4.40;;;27.10;99.90;;;;;;5055179;28;20021;-75
2022/06/30 10:01:54;;;;;;;7.35;4.40;;;27.20;99.90;;;;;;5050392;28;20374;-76
2022/06/30 10:04:20;;;;;;;9.27;4.47;;;27.40;99.90;;;;;;5054979;28;20024;-76
2022/06/30 10:06:46;;;;;;;7.95;4.50;;;27.50;99.90;;;;;;5055293;28;20033;-75
2022/06/30 10:09:17;;;;;;;7.75;4.45;;;27.40;99.90;;;;;;5055304;28;20036;-75
2022/06/30 10:11:44;;;;;;;7.60;4.57;;;27.20;99.90;;;;;;5055458;28;20037;-76
2022/06/30 10:14:11;;;;;;;5.63;3.60;;;27.20;99.90;;;;;;5064184;28;20105;-75
2022/06/30 10:16:42;;;;;;;8.00;4.15;;;27.30;99.90;;;;;;5075314;28;20043;-78
2022/06/30 10:19:12;;;;;;;11.15;5.18;;;27.20;99.90;;;;;;5063009;28;20025;-77
2022/06/30 10:21:40;;;;;;;6.65;3.40;;;27.10;99.90;;;;;;5052615;28;20121;-76
2022/06/30 10:24:06;;;;;;;7.20;3.22;;;27.20;99.90;;;;;;5050493;28;20369;-75
2022/06/30 10:29:18;;;;;;;7.13;3.53;;;27.30;99.90;;;;;;5074168;28;20105;-75
2022/06/30 10:32:16;;;;;;;5.75;2.80;;;27.30;99.90;;;;;;5048313;28;20026;-76
2022/06/30 10:34:52;;;;;;;8.15;4.15;;;27.60;99.90;;;;;;5041671;28;20114;-77
2022/06/30 10:37:33;;;;;;;7.25;3.50;;;27.70;99.90;;;;;;5040429;28;20492;-77
2022/06/30 10:40:02;;;;;;;8.00;3.40;;;27.80;99.90;;;;;;5041264;28;20032;-79
2022/06/30 10:42:46;;;;;;;8.60;3.40;;;27.80;99.90;;;;;;5054921;28;20036;-74
2022/06/30 10:45:26;;;;;;;5.65;4.15;;;27.70;99.90;;;;;;5054712;28;20079;-75
2022/06/30 10:47:56;;;;;;;8.38;3.45;;;27.50;99.90;;;;;;5054621;28;20099;-76
2022/06/30 10:50:31;;;;;;;6.57;3.83;;;27.40;99.90;;;;;;5054967;28;20034;-75
2022/06/30 10:52:57;;;;;;;10.63;4.13;;;27.30;99.90;;;;;;5046655;28;20025;-74
2022/06/30 10:55:23;;;;;;;7.45;3.95;;;27.30;99.90;;;;;;5052117;28;20360;-75
2022/06/30 10:58:03;;;;;;;6.20;2.90;;;27.30;99.90;;;;;;5051413;28;20029;-75
2022/06/30 11:01:05;;;;;;;7.90;4.15;;;27.40;99.90;;;;;;5054408;28;20056;-77
2022/06/30 11:03:41;;;;;;;8.88;3.75;;;27.70;99.90;;;;;;5052701;28;20029;-75
2022/06/30 11:06:11;;;;;;;6.25;3.60;;;27.90;99.90;;;;;;5054364;28;20021;-76
2022/06/30 11:08:46;;;;;;;6.57;3.15;;;27.90;99.90;;;;;;5053704;28;20064;-75
2022/06/30 11:11:28;;;;;;;7.68;3.58;;;27.80;99.90;;;;;;5066712;28;20028;-75
2022/06/30 11:14:01;;;;;;;9.07;3.15;;;27.60;99.90;;;;;;5050100;28;20030;-76
2022/06/30 11:16:28;;;;;;;8.25;4.40;;;27.50;99.90;;;;;;5033332;28;20037;-75
2022/06/30 11:18:55;;;;;;;8.70;3.63;;;27.40;99.90;;;;;;5038503;28;20021;-75
2022/06/30 11:21:21;;;;;;;6.47;3.90;;;27.50;99.90;;;;;;5033576;28;20040;-75
2022/06/30 11:23:48;;;;;;;8.82;4.13;;;27.60;99.90;;;;;;5051268;28;20028;-76
2022/06/30 11:29:01;;;;;;;6.70;3.30;;;28.00;99.90;;;;;;5043174;28;20055;-75
2022/06/30 11:31:32;;;;;;;5.20;3.63;;;28.00;99.60;;;;;;5073523;28;20039;-75
2022/06/30 11:34:16;;;;;;;5.10;3.05;;;28.20;99.90;;;;;;5038843;28;20030;-75
2022/06/30 11:36:44;;;;;;;4.32;3.25;;;28.00;99.90;;;;;;5032679;28;20029;-76
2022/06/30 11:39:11;;;;;;;4.78;2.63;;;27.90;99.90;;;;;;5033763;28;20033;-72
2022/06/30 11:41:58;;;;;;;6.47;2.90;;;27.80;99.90;;;;;;5033860;28;20018;-74
2022/06/30 11:44:38;;;;;;;5.78;3.42;;;27.70;99.90;;;;;;5035928;28;20037;-74
2022/06/30 11:47:07;;;;;;;3.33;2.67;;;27.60;99.90;;;;;;5050028;28;20033;-74
2022/06/30 11:49:45;;;;;;;6.60;2.85;;;27.40;99.90;;;;;;5054465;28;20081;-76
2022/06/30 11:52:13;;;;;;;8.77;3.25;;;27.40;99.90;;;;;;5052217;28;20020;-75
2022/06/30 11:54:47;;;;;;;9.30;3.83;;;27.40;99.90;;;;;;5053288;28;20488;-74
2022/06/30 11:57:12;;;;;;;5.80;3.28;;;27.40;99.90;;;;;;5047195;28;20021;-75
2022/06/30 11:59:49;;;;;;;5.00;3.40;;;27.30;99.90;;;;;;5033290;28;20383;-76
2022/06/30 12:02:16;;;;;;;5.75;3.42;;;27.30;99.90;;;;;;5033333;28;20022;-74
2022/06/30 12:04:42;;;;;;;3.42;2.55;;;27.40;99.90;;;;;;5033162;28;20029;-76
2022/06/30 12:07:10;;;;;;;8.07;3.60;;;27.40;99.90;;;;;;5038338;28;20025;-75
2022/06/30 12:09:36;;;;;;;7.22;3.60;;;27.40;99.90;;;;;;5053053;28;20477;-75
2022/06/30 12:12:03;;;;;;;5.78;3.22;;;27.40;99.90;;;;;;5053377;28;20053;-76
2022/06/30 12:14:34;;;;;;;10.75;2.85;;;27.40;99.90;;;;;;5042888;28;20045;-76
2022/06/30 12:17:00;;;;;;;10.70;4.10;;;27.40;99.90;;;;;;5033238;28;20021;-78
2022/06/30 12:19:26;;;;;;;8.93;3.60;;;27.50;99.90;;;;;;5063068;28;20380;-76
2022/06/30 12:21:55;;;;;;;7.28;3.28;;;27.50;99.90;;;;;;5069792;28;20035;-76
2022/06/30 12:24:23;;;;;;;5.80;2.80;;;27.50;99.90;;;;;;5032860;28;20026;-76
2022/06/30 12:26:56;;;;;;;7.50;3.30;;;27.50;99.90;;;;;;5047672;28;20112;-75
2022/06/30 12:29:24;;;;;;;8.98;2.92;;;27.90;99.90;;;;;;5052257;28;20040;-75
2022/06/30 12:32:00;;;;;;;6.60;2.67;;;28.10;99.90;;;;;;5053138;28;20017;-76
2022/06/30 12:34:25;;;;;;;5.65;2.97;;;28.20;99.90;;;;;;5051534;28;20044;-75
2022/06/30 12:36:55;;;;;;;3.50;2.80;;;28.10;99.90;;;;;;5052984;28;20021;-75
2022/06/30 12:39:20;;;;;;;6.75;2.63;;;28.30;99.90;;;;;;5052774;28;20025;-75
2022/06/30 12:41:46;;;;;;;7.40;2.53;;;28.40;99.90;;;;;;5049494;28;20104;-75
2022/06/30 12:44:13;;;;;;;3.58;2.60;;;28.40;99.90;;;;;;5033333;28;20378;-75
2022/06/30 12:46:41;;;;;;;7.20;3.60;;;28.60;99.90;;;;;;5052528;28;20098;-76
2022/06/30 12:49:19;;;;;;;5.47;2.45;;;28.70;99.50;;;;;;5052702;28;20078;-76
2022/06/30 12:51:46;;;;;;;3.75;2.80;;;28.80;99.70;;;;;;5036693;28;20460;-75
2022/06/30 12:54:13;;;;;;;9.10;3.10;;;29.10;99.90;;;;;;5052793;28;20351;-76
2022/06/30 12:56:41;;;;;;;4.72;2.50;;;28.90;99.90;;;;;;5050662;28;20421;-76
2022/06/30 12:59:16;;;;;;;8.15;3.20;;;28.70;99.90;;;;;;5072528;28;20081;-75
2022/06/30 13:01:43;;;;;;;7.50;2.72;;;28.60;99.90;;;;;;5075797;28;20035;-77
2022/06/30 13:04:10;;;;;;;5.45;2.97;;;28.60;99.90;;;;;;5076859;28;20029;-76
2022/06/30 13:06:41;;;;;;;5.00;2.78;;;28.40;99.90;;;;;;5066598;28;20033;-75